Weather at Slivnitsa

Public forecast

Using degrees Celsius for public forecast. Weather courtesy of forecast.io.

Closest aviation weather report (METAR) to Slivnitsa

Closest report is Sofia Airport, 19.6 nm (36.3 km) ESE. Retrieved 2022/06/27 10:30 UTC (10 minutes ago):

LBSF 271030Z VRB02KT 9999 SCT046 26/16 Q1020 NOSIG

Closest aviation forecast (TAF) to Slivnitsa

Closest forecast is Sofia Airport, 19.6 nm (36.3 km) ESE. Retrieved 2022/06/27 06:18 UTC (4 hours ago):

TAF LBSF 270500Z 2706/2806 VRB04KT CAVOK BECMG 2708/2710 03010KT BECMG 2718/2720 VRB04KT TEMPO 2800/2805 3000 BR SCT010